Time;durP1;ratioP1;P1;durP2;ratioP2;P2;SDS_P1;SDS_P2;PMS_P1;PMS_P2;Temp;Humidity;BMP_temperature;BMP_pressure;BME280_temperature;BME280_humidity;BME280_pressure;Samples;Min_cycle;Max_cycle;Signal;HPM_P1;HPM_P2
2023/12/10 00:00:46;;;;;;;;;5.33;1.00;;;;;10.49;100.00;100929.34;5003960;28;45385;-77
2023/12/10 00:03:12;;;;;;;;;6.00;2.00;;;;;10.45;100.00;100928.63;5018001;28;45420;-77
2023/12/10 00:05:37;;;;;;;;;3.00;0.67;;;;;10.49;100.00;100936.41;4989848;28;46183;-76
2023/12/10 00:08:03;;;;;;;;;7.00;2.33;;;;;10.51;100.00;100948.63;4999029;28;55785;-75
2023/12/10 00:10:28;;;;;;;;;7.00;3.00;;;;;10.51;100.00;100951.28;5017819;28;45413;-75
2023/12/10 00:12:53;;;;;;;;;4.33;2.00;;;;;10.43;100.00;100945.47;5017061;28;47838;-75
2023/12/10 00:15:19;;;;;;;;;2.33;2.33;;;;;10.39;100.00;100943.91;5003359;28;45469;-75
2023/12/10 00:17:44;;;;;;;;;6.00;1.00;;;;;10.40;100.00;100954.38;5020525;28;53465;-76
2023/12/10 00:20:09;;;;;;;;;4.00;2.00;;;;;10.38;100.00;100952.75;5008160;28;45749;-76
2023/12/10 00:22:35;;;;;;;;;8.33;2.33;;;;;10.39;100.00;100960.63;5009057;28;45631;-76
2023/12/10 00:25:00;;;;;;;;;6.67;3.67;;;;;10.37;100.00;100965.09;5004843;28;47497;-75
2023/12/10 00:27:25;;;;;;;;;6.67;3.00;;;;;10.23;100.00;100954.28;5002980;28;50777;-75
2023/12/10 00:29:51;;;;;;;;;8.00;3.00;;;;;10.33;100.00;100968.81;5014035;28;45388;-75
2023/12/10 00:32:16;;;;;;;;;9.67;2.67;;;;;10.20;100.00;100953.56;4995023;28;62736;-75
2023/12/10 00:34:41;;;;;;;;;4.33;2.00;;;;;10.22;100.00;100959.63;5000661;28;45512;-76
2023/12/10 00:37:07;;;;;;;;;3.00;3.00;;;;;10.30;100.00;100979.53;5012455;28;52995;-75
2023/12/10 00:39:32;;;;;;;;;2.33;1.00;;;;;10.23;100.00;100959.56;4993344;28;45455;-76
2023/12/10 00:41:57;;;;;;;;;5.00;2.00;;;;;10.12;100.00;100953.84;4984201;28;45656;-75
2023/12/10 00:44:23;;;;;;;;;6.00;1.00;;;;;10.26;100.00;100975.31;4991147;28;47052;-76
2023/12/10 00:46:48;;;;;;;;;3.67;1.00;;;;;10.21;100.00;100985.19;5003882;28;53073;-76
2023/12/10 00:49:13;;;;;;;;;8.00;2.00;;;;;10.17;100.00;100978.34;5002718;28;54916;-75
2023/12/10 00:51:38;;;;;;;;;2.67;2.67;;;;;10.08;100.00;100962.81;5019419;28;45326;-76
2023/12/10 00:54:06;;;;;;;;;6.00;2.33;;;;;10.04;100.00;100965.69;5019765;28;47711;-75
2023/12/10 00:56:31;;;;;;;;;4.33;2.00;;;;;9.95;100.00;100977.47;5000283;28;45564;-76
2023/12/10 00:58:57;;;;;;;;;3.67;2.00;;;;;10.17;100.00;101003.91;5001355;28;45338;-75
2023/12/10 01:01:23;;;;;;;;;3.00;2.67;;;;;10.07;100.00;100997.25;5006657;28;45455;-76
2023/12/10 01:03:48;;;;;;;;;2.00;2.00;;;;;10.05;100.00;101001.72;5019964;28;45646;-75
2023/12/10 01:06:13;;;;;;;;;3.00;1.33;;;;;10.06;100.00;101017.53;5012966;28;45431;-75
2023/12/10 01:08:40;;;;;;;;;2.00;1.00;;;;;10.02;100.00;101009.78;5003386;28;45372;-75
2023/12/10 01:11:05;;;;;;;;;3.00;1.00;;;;;10.04;100.00;101023.81;4984786;28;45527;-76
2023/12/10 01:13:32;;;;;;;;;3.00;2.33;;;;;10.00;100.00;101016.94;4993954;28;46004;-76
2023/12/10 01:15:58;;;;;;;;;10.33;2.67;;;;;10.06;100.00;101029.88;4995414;28;45322;-76
2023/12/10 01:18:23;;;;;;;;;3.00;1.00;;;;;9.99;100.00;101021.34;5014727;28;54028;-75
2023/12/10 01:20:49;;;;;;;;;7.33;2.00;;;;;10.13;100.00;101041.91;5020007;28;45468;-76
2023/12/10 01:23:15;;;;;;;;;1.33;1.33;;;;;10.13;100.00;101052.50;5006642;28;45447;-75
2023/12/10 01:25:41;;;;;;;;;5.67;2.00;;;;;10.06;100.00;101041.31;5019303;28;45415;-76
2023/12/10 01:28:09;;;;;;;;;4.33;2.00;;;;;10.13;100.00;101063.06;5020187;28;45584;-75
2023/12/10 01:30:34;;;;;;;;;2.67;2.00;;;;;10.08;100.00;101057.13;5014430;28;45377;-76
2023/12/10 01:32:59;;;;;;;;;5.00;2.00;;;;;10.13;100.00;101071.00;5011265;28;45330;-76
2023/12/10 01:35:25;;;;;;;;;2.33;1.00;;;;;10.08;100.00;101070.34;4993747;28;51997;-76
2023/12/10 01:37:51;;;;;;;;;2.67;0.00;;;;;10.00;100.00;101056.56;4998235;28;45350;-75
2023/12/10 01:40:17;;;;;;;;;1.00;1.00;;;;;10.08;100.00;101081.75;5007558;28;45319;-75
2023/12/10 01:42:44;;;;;;;;;1.67;1.00;;;;;10.03;100.00;101070.50;5013636;28;45315;-75
2023/12/10 01:45:10;;;;;;;;;4.33;4.00;;;;;10.06;100.00;101078.31;5017069;28;45484;-75
2023/12/10 01:47:40;;;;;;;;;2.00;2.00;;;;;10.07;100.00;101082.69;5001320;28;45501;-76
2023/12/10 01:50:08;;;;;;;;;1.00;1.00;;;;;9.74;100.00;101042.63;5001576;28;45488;-77
2023/12/10 01:52:34;;;;;;;;;2.00;1.00;;;;;9.89;100.00;101062.28;5019350;28;45321;-76
2023/12/10 01:55:02;;;;;;;;;3.33;2.00;;;;;9.98;100.00;101082.19;5018978;28;45442;-77
2023/12/10 01:57:30;;;;;;;;;6.00;2.33;;;;;9.86;100.00;101054.47;5011086;28;45487;-76
2023/12/10 01:59:57;;;;;;;;;1.00;1.00;;;;;9.94;100.00;101076.16;5014099;28;45639;-77
2023/12/10 02:02:23;;;;;;;;;5.33;1.67;;;;;9.95;100.00;101080.50;4993465;28;45582;-77
2023/12/10 02:04:51;;;;;;;;;1.00;1.00;;;;;9.97;100.00;101089.25;5019515;28;45444;-76
2023/12/10 02:07:16;;;;;;;;;6.67;3.33;;;;;10.04;100.00;101090.72;5010685;28;45579;-76
2023/12/10 02:09:42;;;;;;;;;4.33;2.00;;;;;9.88;100.00;101068.50;4997894;28;45609;-76
2023/12/10 02:12:07;;;;;;;;;3.00;2.00;;;;;9.96;100.00;101084.88;5009624;28;55781;-75
2023/12/10 02:14:32;;;;;;;;;3.33;2.00;;;;;9.89;100.00;101076.34;5001513;28;45453;-75
2023/12/10 02:16:57;;;;;;;;;3.33;1.00;;;;;9.96;100.00;101090.16;4991488;28;57702;-75
2023/12/10 02:19:23;;;;;;;;;1.00;1.00;;;;;10.00;100.00;101104.97;5012803;28;64168;-76
2023/12/10 02:21:51;;;;;;;;;1.00;1.00;;;;;10.01;100.00;101117.28;4988085;28;55005;-76
2023/12/10 02:24:25;;;;;;;;;2.00;1.00;;;;;9.87;100.00;101096.69;5017444;28;45540;-75
2023/12/10 02:26:50;;;;;;;;;1.00;1.00;;;;;10.00;100.00;101118.19;4994095;28;45573;-75
2023/12/10 02:29:16;;;;;;;;;3.00;2.00;;;;;9.93;100.00;101117.56;5010896;28;45523;-75
2023/12/10 02:31:42;;;;;;;;;1.00;1.00;;;;;9.92;100.00;101107.91;5005669;28;45336;-75
2023/12/10 02:34:08;;;;;;;;;9.33;2.00;;;;;9.85;100.00;101102.94;5011233;28;45251;-75
2023/12/10 02:36:33;;;;;;;;;3.33;2.00;;;;;9.77;100.00;101095.31;4996923;28;45310;-76
2023/12/10 02:38:58;;;;;;;;;2.67;1.67;;;;;9.89;100.00;101113.31;5018008;28;58044;-75
2023/12/10 02:41:24;;;;;;;;;4.00;2.67;;;;;9.80;100.00;101102.25;5001021;28;47334;-76
2023/12/10 02:43:49;;;;;;;;;3.67;2.00;;;;;9.70;100.00;101080.63;5018881;28;49740;-76
2023/12/10 02:46:14;;;;;;;;;3.67;1.00;;;;;9.75;100.00;101093.69;5016296;28;52700;-76
2023/12/10 02:48:39;;;;;;;;;6.00;2.33;;;;;9.77;100.00;101092.69;4997035;28;45445;-76
2023/12/10 02:51:05;;;;;;;;;1.67;1.00;;;;;9.85;100.00;101100.28;5011779;28;46894;-76
2023/12/10 02:53:30;;;;;;;;;2.67;1.00;;;;;9.84;100.00;101110.03;5012562;28;45461;-76
2023/12/10 02:55:57;;;;;;;;;3.33;2.00;;;;;9.89;100.00;101118.63;5016538;28;53181;-76
2023/12/10 02:58:22;;;;;;;;;7.00;2.33;;;;;9.85;100.00;101127.56;5008001;28;45522;-75
2023/12/10 03:00:48;;;;;;;;;3.67;2.00;;;;;9.81;100.00;101109.28;5015790;28;46213;-76
2023/12/10 03:03:13;;;;;;;;;3.00;0.00;;;;;9.86;100.00;101117.88;5007915;28;45405;-76
2023/12/10 03:05:38;;;;;;;;;0.67;0.00;;;;;9.94;100.00;101137.81;4999464;28;45458;-76
2023/12/10 03:08:04;;;;;;;;;2.33;2.00;;;;;9.83;100.00;101120.63;5015313;28;45388;-76
2023/12/10 03:10:29;;;;;;;;;2.67;2.00;;;;;9.80;100.00;101124.25;4990358;28;45730;-75
2023/12/10 03:12:55;;;;;;;;;3.00;2.00;;;;;9.93;100.00;101153.69;5006945;28;56877;-75
2023/12/10 03:15:20;;;;;;;;;3.00;1.67;;;;;9.83;100.00;101125.91;4989405;28;45327;-76
2023/12/10 03:17:45;;;;;;;;;3.00;2.00;;;;;10.07;100.00;101153.16;5017894;28;51545;-76
2023/12/10 03:20:12;;;;;;;;;6.00;1.67;;;;;9.93;100.00;101122.00;5011978;28;49294;-75
2023/12/10 03:22:38;;;;;;;;;4.33;2.00;;;;;10.06;100.00;101151.44;5014227;28;45561;-76
2023/12/10 03:25:03;;;;;;;;;2.33;2.00;;;;;10.10;100.00;101160.97;5010540;28;45503;-75
2023/12/10 03:27:29;;;;;;;;;4.33;2.00;;;;;10.03;100.00;101155.06;4986170;28;45446;-75
2023/12/10 03:29:54;;;;;;;;;4.00;2.00;;;;;10.10;100.00;101163.63;5018339;28;45402;-75
2023/12/10 03:32:20;;;;;;;;;3.33;1.00;;;;;10.13;100.00;101171.41;5012595;28;46569;-76
2023/12/10 03:34:45;;;;;;;;;4.33;2.00;;;;;10.16;100.00;101169.56;5018731;28;45200;-75
2023/12/10 03:37:10;;;;;;;;;0.33;0.33;;;;;10.10;100.00;101153.91;5011695;28;45462;-76
2023/12/10 03:39:36;;;;;;;;;1.33;1.33;;;;;10.13;100.00;101177.56;4999130;28;45427;-76
2023/12/10 03:42:01;;;;;;;;;4.33;1.67;;;;;9.87;100.00;101128.38;4983159;28;59779;-75
2023/12/10 03:44:26;;;;;;;;;2.00;1.00;;;;;10.22;100.00;101185.16;5019001;28;49189;-75
2023/12/10 03:46:52;;;;;;;;;3.67;1.00;;;;;10.10;100.00;101190.91;4982117;28;46306;-75
2023/12/10 03:49:17;;;;;;;;;3.00;2.00;;;;;10.25;100.00;101232.63;5001445;28;52692;-76
2023/12/10 03:51:42;;;;;;;;;3.00;2.00;;;;;10.28;100.00;101227.22;5021708;28;45377;-75
2023/12/10 03:54:08;;;;;;;;;2.00;1.33;;;;;10.17;100.00;101221.50;5022151;28;45283;-75
2023/12/10 03:56:33;;;;;;;;;2.00;2.00;;;;;10.28;100.00;101236.91;5018112;28;53449;-76
2023/12/10 03:59:00;;;;;;;;;3.67;1.00;;;;;10.16;100.00;101208.34;4989611;28;47090;-75
2023/12/10 04:01:26;;;;;;;;;2.00;1.33;;;;;10.24;100.00;101230.06;4992989;28;45317;-75
2023/12/10 04:03:51;;;;;;;;;3.00;2.00;;;;;10.24;100.00;101227.41;5014695;28;47530;-76
2023/12/10 04:06:16;;;;;;;;;2.33;1.33;;;;;10.11;100.00;101212.91;5018136;28;61121;-75
2023/12/10 04:08:42;;;;;;;;;3.33;1.00;;;;;10.15;100.00;101228.59;5016480;28;46333;-76
2023/12/10 04:11:07;;;;;;;;;4.00;2.00;;;;;10.03;100.00;101212.34;5020394;28;45370;-75
2023/12/10 04:13:33;;;;;;;;;2.00;0.00;;;;;10.13;100.00;101229.56;5014332;28;45323;-75
2023/12/10 04:16:00;;;;;;;;;7.33;0.33;;;;;10.05;100.00;101214.00;5019270;28;45284;-73
2023/12/10 04:18:27;;;;;;;;;5.33;3.67;;;;;10.10;100.00;101211.19;5016359;28;46362;-76
2023/12/10 04:20:52;;;;;;;;;1.67;1.00;;;;;10.07;100.00;101216.59;5021151;28;45503;-76
2023/12/10 04:23:17;;;;;;;;;4.33;3.00;;;;;10.08;100.00;101231.53;5008944;28;45346;-75
2023/12/10 04:25:42;;;;;;;;;2.67;2.00;;;;;10.13;100.00;101229.56;4999100;28;64860;-76
2023/12/10 04:28:08;;;;;;;;;1.00;1.00;;;;;10.11;100.00;101236.69;5008959;28;54958;-75
2023/12/10 04:30:33;;;;;;;;;4.33;2.00;;;;;10.05;100.00;101236.91;4991989;28;46794;-75
2023/12/10 04:32:58;;;;;;;;;2.00;2.00;;;;;9.91;100.00;101216.31;5010228;28;45514;-76
2023/12/10 04:35:24;;;;;;;;;4.67;2.00;;;;;9.93;100.00;101225.91;5015961;28;45547;-75
2023/12/10 04:37:49;;;;;;;;;4.00;1.00;;;;;10.01;100.00;101232.69;5001909;28;45870;-75
2023/12/10 04:40:15;;;;;;;;;1.00;1.00;;;;;9.94;100.00;101221.47;5014453;28;45492;-76
2023/12/10 04:42:41;;;;;;;;;3.00;1.33;;;;;9.92;100.00;101205.69;5021298;28;45321;-76
2023/12/10 04:45:08;;;;;;;;;2.00;2.00;;;;;10.06;100.00;101236.00;5014591;28;45334;-75
2023/12/10 04:47:34;;;;;;;;;1.00;1.00;;;;;9.98;100.00;101219.59;5002479;28;45679;-75
2023/12/10 04:50:02;;;;;;;;;0.00;0.00;;;;;10.00;100.00;101221.25;5003682;28;45449;-76
2023/12/10 04:52:28;;;;;;;;;4.00;1.00;;;;;9.85;100.00;101206.81;5006473;28;45297;-76
2023/12/10 04:54:53;;;;;;;;;2.67;1.00;;;;;9.87;100.00;101241.13;5002763;28;45657;-75
2023/12/10 04:57:18;;;;;;;;;2.33;1.67;;;;;9.89;100.00;101226.06;4997347;28;66113;-75
2023/12/10 04:59:43;;;;;;;;;4.00;2.00;;;;;9.81;100.00;101221.09;5014589;28;45640;-75
2023/12/10 05:02:09;;;;;;;;;2.00;1.00;;;;;9.92;100.00;101232.09;5011766;28;58742;-75
2023/12/10 05:04:34;;;;;;;;;2.33;2.00;;;;;9.84;100.00;101198.97;5020643;28;45570;-76
2023/12/10 05:06:59;;;;;;;;;1.67;1.67;;;;;9.93;100.00;101238.25;5002579;28;45413;-75
2023/12/10 05:09:25;;;;;;;;;1.00;1.00;;;;;9.88;100.00;101222.56;5014873;28;45681;-76
2023/12/10 05:11:50;;;;;;;;;4.67;1.67;;;;;9.75;100.00;101204.59;5000803;28;53689;-75
2023/12/10 05:14:15;;;;;;;;;2.00;2.00;;;;;9.93;100.00;101244.41;5002101;28;67533;-76
2023/12/10 05:16:41;;;;;;;;;3.00;2.00;;;;;9.77;100.00;101223.88;5010490;28;60730;-75
2023/12/10 05:19:06;;;;;;;;;3.00;2.00;;;;;9.90;100.00;101262.16;5020413;28;45561;-76
2023/12/10 05:21:33;;;;;;;;;3.67;1.00;;;;;9.84;100.00;101244.75;4995494;28;45532;-76
2023/12/10 05:23:58;;;;;;;;;7.67;2.00;;;;;9.88;100.00;101245.50;5014610;28;45420;-75
2023/12/10 05:26:24;;;;;;;;;4.00;0.33;;;;;9.79;100.00;101233.47;4999677;28;46624;-76
2023/12/10 05:28:49;;;;;;;;;3.33;2.67;;;;;9.76;100.00;101238.88;5007496;28;45298;-75
2023/12/10 05:31:14;;;;;;;;;2.00;1.00;;;;;9.83;100.00;101263.28;5004075;28;51174;-76
2023/12/10 05:33:39;;;;;;;;;4.33;2.00;;;;;9.85;100.00;101269.34;5006607;28;45490;-75
2023/12/10 05:36:05;;;;;;;;;2.67;2.00;;;;;9.64;100.00;101230.53;5002824;28;45433;-76
2023/12/10 05:38:31;;;;;;;;;3.33;2.00;;;;;9.58;100.00;101239.56;4990701;28;45584;-77
2023/12/10 05:40:56;;;;;;;;;6.33;1.67;;;;;9.74;100.00;101280.34;4999282;28;45677;-76
2023/12/10 05:43:22;;;;;;;;;2.33;1.00;;;;;9.79;100.00;101286.31;5003337;28;45448;-76
2023/12/10 05:45:47;;;;;;;;;5.33;2.33;;;;;9.79;100.00;101291.59;5019794;28;48062;-78
2023/12/10 05:48:12;;;;;;;;;2.00;1.67;;;;;9.76;100.00;101286.41;5014318;28;52095;-76
2023/12/10 05:50:37;;;;;;;;;3.33;1.67;;;;;9.66;100.00;101278.88;4990843;28;50445;-75
2023/12/10 05:53:03;;;;;;;;;2.00;2.00;;;;;9.70;100.00;101283.13;5011235;28;58772;-75
2023/12/10 05:55:29;;;;;;;;;4.00;1.00;;;;;9.68;100.00;101300.81;5011777;28;45484;-76
2023/12/10 05:57:55;;;;;;;;;3.00;1.33;;;;;9.76;100.00;101310.19;5001518;28;45676;-75
2023/12/10 06:00:21;;;;;;;;;3.33;3.00;;;;;9.73;100.00;101305.03;5019929;28;45369;-75
2023/12/10 06:02:47;;;;;;;;;3.67;1.67;;;;;9.78;100.00;101326.84;4985378;28;45319;-76
2023/12/10 06:05:12;;;;;;;;;4.00;3.00;;;;;9.75;100.00;101308.44;5016055;28;45448;-75
2023/12/10 06:07:39;;;;;;;;;8.33;1.33;;;;;9.78;100.00;101315.44;5013350;28;45497;-76
2023/12/10 06:10:05;;;;;;;;;3.67;1.00;;;;;9.85;100.00;101308.97;4997582;28;45395;-76
2023/12/10 06:12:30;;;;;;;;;2.33;1.00;;;;;9.87;100.00;101321.25;5017974;28;45471;-76
2023/12/10 06:14:56;;;;;;;;;3.00;1.67;;;;;9.75;100.00;101297.88;5016433;28;45344;-76
2023/12/10 06:17:21;;;;;;;;;8.33;2.33;;;;;9.76;100.00;101293.47;5015776;28;45590;-75
2023/12/10 06:19:46;;;;;;;;;3.00;0.67;;;;;9.83;100.00;101308.19;5018992;28;45363;-76
2023/12/10 06:22:11;;;;;;;;;6.67;1.33;;;;;9.90;100.00;101310.56;4997560;28;45628;-76
2023/12/10 06:24:37;;;;;;;;;5.67;2.67;;;;;9.92;100.00;101308.72;5002083;28;56324;-76
2023/12/10 06:27:02;;;;;;;;;3.33;1.00;;;;;9.87;100.00;101297.47;5017805;28;54599;-76
2023/12/10 06:29:27;;;;;;;;;4.00;1.00;;;;;9.87;100.00;101294.81;5008981;28;45314;-76
2023/12/10 06:31:53;;;;;;;;;3.33;2.00;;;;;9.82;100.00;101287.97;4997214;28;55290;-76
2023/12/10 06:34:18;;;;;;;;;1.00;0.00;;;;;9.94;100.00;101303.38;5011898;28;47240;-75
2023/12/10 06:36:43;;;;;;;;;8.00;3.00;;;;;9.97;100.00;101307.69;4993117;28;45543;-76
2023/12/10 06:39:10;;;;;;;;;10.00;2.00;;;;;9.98;100.00;101304.16;5010644;28;45595;-75
2023/12/10 06:41:35;;;;;;;;;1.33;1.33;;;;;9.94;100.00;101292.81;5018888;28;45345;-75
2023/12/10 06:44:00;;;;;;;;;1.00;1.00;;;;;9.95;100.00;101290.09;4994896;28;47296;-76
2023/12/10 06:46:26;;;;;;;;;1.67;1.00;;;;;10.00;100.00;101297.00;5005179;28;45381;-76
2023/12/10 06:48:51;;;;;;;;;2.00;0.67;;;;;9.98;100.00;101297.06;5016813;28;45653;-75
2023/12/10 06:51:16;;;;;;;;;4.00;2.00;;;;;9.94;100.00;101293.69;4989066;28;66638;-76
2023/12/10 06:53:42;;;;;;;;;2.33;1.00;;;;;9.91;100.00;101283.19;4995005;28;45405;-76
2023/12/10 06:56:08;;;;;;;;;5.00;2.33;;;;;9.92;100.00;101292.00;5014144;28;66404;-76
2023/12/10 06:58:33;;;;;;;;;7.67;2.67;;;;;9.75;100.00;101270.63;5008294;28;45373;-76
2023/12/10 07:00:59;;;;;;;;;4.67;2.00;;;;;9.87;100.00;101294.81;5015054;28;45315;-75
2023/12/10 07:03:24;;;;;;;;;6.33;2.67;;;;;9.80;100.00;101295.97;4989468;28;47074;-75
2023/12/10 07:05:49;;;;;;;;;2.67;2.00;;;;;9.85;100.00;101294.00;5008762;28;45540;-76
2023/12/10 07:08:15;;;;;;;;;3.33;3.00;;;;;9.79;100.00;101280.16;5012361;28;45358;-75
2023/12/10 07:10:40;;;;;;;;;4.67;2.33;;;;;9.71;100.00;101266.38;5008534;28;45269;-76
2023/12/10 07:13:05;;;;;;;;;3.00;2.00;;;;;9.83;100.00;101290.56;5004368;28;57169;-76
2023/12/10 07:15:30;;;;;;;;;4.33;1.33;;;;;9.87;100.00;101309.81;5018319;28;49397;-75
2023/12/10 07:17:56;;;;;;;;;3.00;2.00;;;;;9.74;100.00;101285.63;5001151;28;45363;-76
2023/12/10 07:20:21;;;;;;;;;10.00;4.00;;;;;9.90;100.00;101313.22;4990383;28;45600;-76
2023/12/10 07:22:46;;;;;;;;;3.67;2.00;;;;;9.72;100.00;101282.16;5014887;28;61742;-75
2023/12/10 07:25:12;;;;;;;;;5.00;1.00;;;;;9.71;100.00;101288.38;5007799;28;45374;-76
2023/12/10 07:27:37;;;;;;;;;2.33;1.33;;;;;9.90;100.00;101328.19;4996978;28;45366;-76
2023/12/10 07:30:03;;;;;;;;;6.33;2.33;;;;;9.85;100.00;101328.34;5017244;28;45568;-75
2023/12/10 07:32:28;;;;;;;;;2.33;1.67;;;;;9.78;100.00;101310.16;5005134;28;46392;-75
2023/12/10 07:34:55;;;;;;;;;3.33;1.00;;;;;9.88;100.00;101344.09;5008805;28;45416;-75
2023/12/10 07:37:20;;;;;;;;;9.00;4.00;;;;;9.81;100.00;101325.88;5002780;28;45715;-76
2023/12/10 07:39:46;;;;;;;;;8.00;2.00;;;;;9.68;100.00;101299.06;5013709;28;45596;-75
2023/12/10 07:42:11;;;;;;;;;2.33;2.33;;;;;9.73;100.00;101312.06;5014385;28;45994;-77
2023/12/10 07:44:36;;;;;;;;;3.00;2.00;;;;;9.71;100.00;101316.56;5006748;28;45339;-75
2023/12/10 07:47:02;;;;;;;;;3.33;3.33;;;;;9.77;100.00;101325.13;5016217;28;45429;-76
2023/12/10 07:49:27;;;;;;;;;3.00;2.00;;;;;9.71;100.00;101306.88;5009126;28;45497;-76
2023/12/10 07:51:52;;;;;;;;;2.33;1.67;;;;;9.77;100.00;101311.91;5003942;28;45385;-76
2023/12/10 07:54:18;;;;;;;;;3.00;3.00;;;;;9.81;100.00;101315.31;5011891;28;63783;-76
2023/12/10 07:56:43;;;;;;;;;4.33;2.00;;;;;9.88;100.00;101325.59;4998135;28;45279;-77
2023/12/10 07:59:08;;;;;;;;;4.33;3.00;;;;;9.80;100.00;101317.09;5016198;28;45263;-76
2023/12/10 08:01:34;;;;;;;;;9.33;2.67;;;;;9.93;100.00;101334.22;4999515;28;46598;-77
2023/12/10 08:03:59;;;;;;;;;4.00;1.33;;;;;10.00;100.00;101328.72;4995215;28;45526;-76
2023/12/10 08:06:24;;;;;;;;;4.00;3.00;;;;;10.02;100.00;101326.88;4993185;28;45545;-77
2023/12/10 08:08:50;;;;;;;;;8.67;3.00;;;;;10.01;100.00;101315.47;4999334;28;45530;-75
2023/12/10 08:11:15;;;;;;;;;4.33;2.00;;;;;9.95;100.00;101292.75;5017844;28;46185;-76
2023/12/10 08:13:40;;;;;;;;;4.33;3.00;;;;;10.02;100.00;101306.59;4999102;28;45297;-76
2023/12/10 08:16:06;;;;;;;;;7.67;2.00;;;;;9.88;100.00;101280.69;4996114;28;45498;-77
2023/12/10 08:18:31;;;;;;;;;1.67;1.67;;;;;10.04;100.00;101301.28;5014454;28;45369;-75
2023/12/10 08:20:57;;;;;;;;;3.00;1.33;;;;;9.89;100.00;101276.25;5012135;28;45383;-76
2023/12/10 08:23:22;;;;;;;;;2.67;2.67;;;;;9.97;100.00;101295.34;5017705;28;45489;-76
2023/12/10 08:25:47;;;;;;;;;3.00;2.00;;;;;10.04;100.00;101301.28;4998244;28;45350;-78
2023/12/10 08:28:13;;;;;;;;;8.00;2.67;;;;;9.91;100.00;101300.88;4990054;28;63414;-75
2023/12/10 08:30:43;;;;;;;;;9.00;3.67;;;;;9.98;100.00;101312.06;5004033;28;49459;-76
2023/12/10 08:33:08;;;;;;;;;1.00;1.00;;;;;9.95;100.00;101308.59;5015413;28;45312;-76
2023/12/10 08:35:36;;;;;;;;;7.33;2.67;;;;;10.02;100.00;101318.94;4998327;28;45338;-75
2023/12/10 08:38:01;;;;;;;;;3.67;2.67;;;;;9.85;100.00;101279.91;5021065;28;45433;-76
2023/12/10 08:40:26;;;;;;;;;5.00;2.00;;;;;9.88;100.00;101291.25;5014222;28;52302;-76
2023/12/10 08:42:54;;;;;;;;;4.67;3.00;;;;;9.94;100.00;101284.91;5017859;28;45376;-76
2023/12/10 08:45:22;;;;;;;;;3.67;2.67;;;;;10.11;100.00;101316.81;5017242;28;45469;-76
2023/12/10 08:47:48;;;;;;;;;6.67;2.00;;;;;9.94;100.00;101291.06;4992244;28;45629;-76
2023/12/10 08:50:14;;;;;;;;;5.00;3.00;;;;;10.01;100.00;101306.66;5028550;28;50209;-77
2023/12/10 08:52:40;;;;;;;;;6.00;2.00;;;;;10.12;100.00;101299.19;5010744;28;45465;-76
2023/12/10 08:55:06;;;;;;;;;7.00;3.67;;;;;10.14;100.00;101302.69;5025533;28;45491;-76
2023/12/10 08:57:31;;;;;;;;;1.00;1.00;;;;;10.20;100.00;101299.81;5028862;28;45707;-76
2023/12/10 09:00:00;;;;;;;;;2.67;2.67;;;;;10.09;100.00;101278.16;5028240;28;45511;-76
2023/12/10 09:02:26;;;;;;;;;3.33;3.33;;;;;10.12;100.00;101265.69;5013371;28;45364;-76
2023/12/10 09:04:51;;;;;;;;;10.33;4.33;;;;;10.13;100.00;101256.00;5025357;28;45353;-76
2023/12/10 09:07:17;;;;;;;;;1.33;1.33;;;;;10.27;100.00;101269.59;5028287;28;64830;-76
2023/12/10 09:09:42;;;;;;;;;5.00;3.67;;;;;10.29;100.00;101279.19;5031151;28;45477;-76
2023/12/10 09:12:07;;;;;;;;;4.00;2.67;;;;;10.20;100.00;101260.16;5010322;28;45459;-76
2023/12/10 09:14:33;;;;;;;;;0.67;0.67;;;;;10.30;100.00;101272.09;5028844;28;45387;-76
2023/12/10 09:16:59;;;;;;;;;3.67;2.00;;;;;10.30;100.00;101266.81;5021689;28;45532;-76
2023/12/10 09:19:27;;;;;;;;;7.00;3.00;;;;;10.41;100.00;101264.59;5007607;28;45613;-76
2023/12/10 09:21:55;;;;;;;;;5.00;2.33;;;;;10.31;100.00;101237.66;5029556;28;45534;-76
2023/12/10 09:24:22;;;;;;;;;1.67;1.33;;;;;10.45;100.00;101256.50;5015520;28;48081;-76
2023/12/10 09:26:48;;;;;;;;;3.33;2.00;;;;;10.50;100.00;101240.47;5013755;28;45412;-78
2023/12/10 09:29:13;;;;;;;;;5.67;2.00;;;;;10.53;100.00;101244.78;4998606;28;47658;-77
2023/12/10 09:31:39;;;;;;;;;1.33;1.33;;;;;10.41;100.00;101211.72;4987099;28;45356;-78
2023/12/10 09:34:04;;;;;;;;;5.33;1.67;;;;;10.58;100.00;101234.84;5009735;28;45650;-77
2023/12/10 09:36:29;;;;;;;;;2.00;1.00;;;;;10.50;100.00;101224.59;5018315;28;54282;-77
2023/12/10 09:38:55;;;;;;;;;5.00;2.00;;;;;10.62;100.00;101234.69;5007529;28;45405;-78
2023/12/10 09:41:20;;;;;;;;;5.00;3.67;;;;;10.59;100.00;101204.84;5020248;28;45317;-78
2023/12/10 09:43:45;;;;;;;;;10.33;2.00;;;;;10.53;100.00;101173.38;5011327;28;45392;-78
2023/12/10 09:46:12;;;;;;;;;8.00;3.00;;;;;10.72;100.00;101229.88;5016239;28;65211;-77
2023/12/10 09:48:41;;;;;;;;;7.00;4.00;;;;;10.74;100.00;101234.16;5019754;28;45472;-78
2023/12/10 09:51:07;;;;;;;;;5.00;3.67;;;;;10.60;100.00;101211.88;5000389;28;45493;-76
2023/12/10 09:53:32;;;;;;;;;4.00;2.00;;;;;10.68;100.00;101226.50;5021547;28;45488;-76
2023/12/10 09:55:57;;;;;;;;;10.00;2.00;;;;;10.76;100.00;101219.13;5014014;28;45629;-76
2023/12/10 09:58:23;;;;;;;;;4.00;2.67;;;;;10.76;100.00;101227.06;5028300;28;46345;-75
2023/12/10 10:00:48;;;;;;;;;3.00;2.33;;;;;10.87;100.00;101231.88;5010661;28;48600;-76
2023/12/10 10:03:14;;;;;;;;;6.67;2.33;;;;;10.85;100.00;101213.44;5022453;28;45425;-75
2023/12/10 10:05:41;;;;;;;;;11.67;3.67;;;;;10.99;100.00;101224.28;5024863;28;59840;-76
2023/12/10 10:08:09;;;;;;;;;5.33;3.33;;;;;11.03;100.00;101210.94;5014275;28;45786;-76
2023/12/10 10:10:35;;;;;;;;;4.33;2.00;;;;;11.08;100.00;101217.75;5013155;28;45294;-76
2023/12/10 10:13:00;;;;;;;;;9.00;2.33;;;;;11.12;100.00;101222.00;5028022;28;51586;-76
2023/12/10 10:15:30;;;;;;;;;8.00;3.00;;;;;11.05;100.00;101191.41;5007744;28;45541;-76
2023/12/10 10:17:56;;;;;;;;;7.67;3.00;;;;;11.06;100.00;101187.00;4977727;28;45619;-76
2023/12/10 10:20:23;;;;;;;;;6.33;2.00;;;;;11.12;100.00;101187.59;4997101;28;46203;-75
2023/12/10 10:22:49;;;;;;;;;2.33;2.33;;;;;11.13;100.00;101180.47;4994448;28;45373;-76
2023/12/10 10:25:15;;;;;;;;;4.00;2.67;;;;;11.21;100.00;101179.25;5013872;28;45397;-76
2023/12/10 10:27:40;;;;;;;;;3.00;1.00;;;;;11.25;100.00;101193.22;5010310;28;47407;-76
2023/12/10 10:30:06;;;;;;;;;3.67;3.67;;;;;11.10;100.00;101156.78;5000984;28;45775;-75
2023/12/10 10:32:32;;;;;;;;;4.33;2.33;;;;;11.24;100.00;101151.75;5004740;28;45424;-76
2023/12/10 10:35:05;;;;;;;;;1.33;1.33;;;;;11.23;100.00;101148.25;4992326;28;45965;-76
2023/12/10 10:37:31;;;;;;;;;6.00;2.00;;;;;11.42;100.00;101159.72;5008539;28;46150;-76
2023/12/10 10:39:57;;;;;;;;;7.67;3.00;;;;;11.45;100.00;101142.88;5013317;28;45489;-76
2023/12/10 10:42:25;;;;;;;;;6.00;2.00;;;;;11.32;100.00;101101.97;5011453;28;45274;-76
2023/12/10 10:44:51;;;;;;;;;6.00;1.00;;;;;11.43;100.00;101104.97;4999779;28;45401;-76
2023/12/10 10:47:18;;;;;;;;;2.33;2.00;;;;;11.63;100.00;101120.81;5013644;28;51255;-75
2023/12/10 10:49:51;;;;;;;;;10.00;5.67;;;;;11.66;100.00;101112.72;5004579;28;46031;-76
2023/12/10 10:52:22;;;;;;;;;2.00;1.67;;;;;11.58;100.00;101096.34;5013399;28;45501;-76
2023/12/10 10:54:48;;;;;;;;;5.33;3.00;;;;;11.48;100.00;101068.56;5009116;28;45353;-76
2023/12/10 10:57:49;;;;;;;;;6.00;3.00;;;;;11.38;100.00;101077.88;4998998;28;47246;-78
2023/12/10 11:00:18;;;;;;;;;5.00;2.00;;;;;11.80;100.00;101106.81;4945793;28;45542;-78
2023/12/10 11:02:47;;;;;;;;;3.67;2.00;;;;;11.79;100.00;101108.59;5006592;28;45490;-78
2023/12/10 11:05:20;;;;;;;;;1.33;1.00;;;;;11.74;100.00;101072.66;5015794;28;45524;-78
2023/12/10 11:07:47;;;;;;;;;2.33;2.33;;;;;11.93;100.00;101092.91;4991029;28;46561;-78
2023/12/10 11:10:13;;;;;;;;;2.00;2.00;;;;;11.94;100.00;101091.13;5014401;28;44786;-78
2023/12/10 11:12:49;;;;;;;;;3.67;2.00;;;;;12.04;100.00;101084.44;5020687;28;45543;-79
2023/12/10 11:15:17;;;;;;;;;4.00;2.00;;;;;12.08;100.00;101075.41;5020896;28;45566;-78